sensor_id;sensor_type;location;lat;lon;timestamp;pressure;altitude;pressure_sealevel;temperature;humidity
11648;BME280;5880;52.342;9.662;2023-01-29T00:00:00;102215.13;;;6.07;52.26
11648;BME280;5880;52.342;9.662;2023-01-29T00:02:26;102223.63;;;6.12;52.49
11648;BME280;5880;52.342;9.662;2023-01-29T00:04:52;102206.84;;;6.09;52.62
11648;BME280;5880;52.342;9.662;2023-01-29T00:07:18;102211.94;;;6.12;52.05
11648;BME280;5880;52.342;9.662;2023-01-29T00:09:43;102212.75;;;6.12;52.47
11648;BME280;5880;52.342;9.662;2023-01-29T00:12:09;102207.81;;;6.08;52.23
11648;BME280;5880;52.342;9.662;2023-01-29T00:14:35;102215.47;;;6.12;52.27
11648;BME280;5880;52.342;9.662;2023-01-29T00:17:00;102208.19;;;6.13;52.14
11648;BME280;5880;52.342;9.662;2023-01-29T00:19:26;102208.03;;;6.15;52.47
11648;BME280;5880;52.342;9.662;2023-01-29T00:21:52;102211.59;;;6.15;52.23
11648;BME280;5880;52.342;9.662;2023-01-29T00:24:18;102208.72;;;6.17;52.39
11648;BME280;5880;52.342;9.662;2023-01-29T00:26:43;102206.16;;;6.15;52.32
11648;BME280;5880;52.342;9.662;2023-01-29T00:29:09;102195.63;;;6.12;52.27
11648;BME280;5880;52.342;9.662;2023-01-29T00:31:35;102197.00;;;6.16;51.80
11648;BME280;5880;52.342;9.662;2023-01-29T00:34:01;102199.72;;;6.16;52.24
11648;BME280;5880;52.342;9.662;2023-01-29T00:36:27;102197.00;;;6.16;52.19
11648;BME280;5880;52.342;9.662;2023-01-29T00:38:55;102198.00;;;6.15;51.64
11648;BME280;5880;52.342;9.662;2023-01-29T00:41:26;102205.31;;;6.15;52.58
11648;BME280;5880;52.342;9.662;2023-01-29T00:44:10;102186.09;;;6.08;52.48
11648;BME280;5880;52.342;9.662;2023-01-29T00:46:58;102198.34;;;6.12;52.49
11648;BME280;5880;52.342;9.662;2023-01-29T00:49:24;102194.78;;;6.11;52.48
11648;BME280;5880;52.342;9.662;2023-01-29T00:51:50;102194.59;;;6.13;52.42
11648;BME280;5880;52.342;9.662;2023-01-29T00:54:42;102193.75;;;6.12;51.92
11648;BME280;5880;52.342;9.662;2023-01-29T00:57:08;102196.31;;;6.14;52.11
11648;BME280;5880;52.342;9.662;2023-01-29T00:59:34;102195.78;;;6.10;52.71
11648;BME280;5880;52.342;9.662;2023-01-29T01:01:59;102193.59;;;6.14;52.25
11648;BME280;5880;52.342;9.662;2023-01-29T01:04:44;102193.75;;;6.12;52.11
11648;BME280;5880;52.342;9.662;2023-01-29T01:07:09;102195.47;;;6.13;52.27
11648;BME280;5880;52.342;9.662;2023-01-29T01:09:35;102195.47;;;6.13;52.18
11648;BME280;5880;52.342;9.662;2023-01-29T01:12:20;102184.78;;;6.12;52.74
11648;BME280;5880;52.342;9.662;2023-01-29T01:14:47;102174.91;;;6.11;52.27
11648;BME280;5880;52.342;9.662;2023-01-29T01:17:13;102179.19;;;6.13;52.57
11648;BME280;5880;52.342;9.662;2023-01-29T01:19:40;102175.59;;;6.13;52.19
11648;BME280;5880;52.342;9.662;2023-01-29T01:22:05;102172.19;;;6.11;52.36
11648;BME280;5880;52.342;9.662;2023-01-29T01:24:31;102178.16;;;6.15;52.38
11648;BME280;5880;52.342;9.662;2023-01-29T01:26:57;102168.16;;;6.15;52.77
11648;BME280;5880;52.342;9.662;2023-01-29T01:29:22;102159.50;;;6.11;52.51
11648;BME280;5880;52.342;9.662;2023-01-29T01:31:49;102166.28;;;6.16;52.43
11648;BME280;5880;52.342;9.662;2023-01-29T01:34:14;102160.00;;;6.15;52.12
11648;BME280;5880;52.342;9.662;2023-01-29T01:36:40;102163.56;;;6.16;52.47
11648;BME280;5880;52.342;9.662;2023-01-29T01:39:06;102150.16;;;6.14;52.81
11648;BME280;5880;52.342;9.662;2023-01-29T01:41:31;102146.06;;;6.10;52.16
11648;BME280;5880;52.342;9.662;2023-01-29T01:44:01;102149.13;;;6.15;52.47
11648;BME280;5880;52.342;9.662;2023-01-29T01:46:35;102143.72;;;6.15;52.21
11648;BME280;5880;52.342;9.662;2023-01-29T01:49:06;102154.56;;;6.15;52.51
11648;BME280;5880;52.342;9.662;2023-01-29T01:51:39;102148.28;;;6.15;52.61
11648;BME280;5880;52.342;9.662;2023-01-29T01:54:13;102143.22;;;6.11;52.12
11648;BME280;5880;52.342;9.662;2023-01-29T01:56:48;102146.06;;;6.10;52.21
11648;BME280;5880;52.342;9.662;2023-01-29T01:59:17;102139.13;;;6.07;52.20
11648;BME280;5880;52.342;9.662;2023-01-29T02:01:48;102145.72;;;6.05;52.28
11648;BME280;5880;52.342;9.662;2023-01-29T02:04:24;102140.44;;;6.03;51.84
11648;BME280;5880;52.342;9.662;2023-01-29T02:07:13;102142.81;;;5.98;52.04
11648;BME280;5880;52.342;9.662;2023-01-29T02:10:09;102154.00;;;5.95;52.19
11648;BME280;5880;52.342;9.662;2023-01-29T02:12:37;102156.16;;;5.91;51.95
11648;BME280;5880;52.342;9.662;2023-01-29T02:15:04;102145.31;;;5.91;52.11
11648;BME280;5880;52.342;9.662;2023-01-29T02:17:31;102153.63;;;5.90;51.98
11648;BME280;5880;52.342;9.662;2023-01-29T02:20:21;102149.34;;;5.87;51.89
11648;BME280;5880;52.342;9.662;2023-01-29T02:23:44;102156.16;;;5.83;51.56
11648;BME280;5880;52.342;9.662;2023-01-29T02:29:31;102160.16;;;5.71;51.95
11648;BME280;5880;52.342;9.662;2023-01-29T02:32:30;102172.88;;;5.70;52.05
11648;BME280;5880;52.342;9.662;2023-01-29T02:38:12;102180.50;;;5.67;52.09
11648;BME280;5880;52.342;9.662;2023-01-29T02:40:45;102183.22;;;5.67;52.27
11648;BME280;5880;52.342;9.662;2023-01-29T02:43:35;102181.34;;;5.67;52.30
11648;BME280;5880;52.342;9.662;2023-01-29T02:49:16;102183.03;;;5.68;52.25
11648;BME280;5880;52.342;9.662;2023-01-29T02:55:50;102190.00;;;5.71;52.56
11648;BME280;5880;52.342;9.662;2023-01-29T02:57:46;102188.31;;;5.70;52.36
11648;BME280;5880;52.342;9.662;2023-01-29T03:00:22;102181.69;;;5.72;52.44
11648;BME280;5880;52.342;9.662;2023-01-29T03:03:15;102174.25;;;5.75;52.32
11648;BME280;5880;52.342;9.662;2023-01-29T03:06:03;102177.81;;;5.75;52.41
11648;BME280;5880;52.342;9.662;2023-01-29T03:08:41;102160.16;;;5.71;52.46
11648;BME280;5880;52.342;9.662;2023-01-29T03:11:10;102167.78;;;5.76;52.32
11648;BME280;5880;52.342;9.662;2023-01-29T03:13:55;102162.91;;;5.79;52.65
11648;BME280;5880;52.342;9.662;2023-01-29T03:16:51;102155.59;;;5.80;52.52
11648;BME280;5880;52.342;9.662;2023-01-29T03:19:28;102147.47;;;5.80;52.25
11648;BME280;5880;52.342;9.662;2023-01-29T03:21:58;102144.06;;;5.78;52.75
11648;BME280;5880;52.342;9.662;2023-01-29T03:24:34;102151.91;;;5.81;52.28
11648;BME280;5880;52.342;9.662;2023-01-29T03:27:26;102145.78;;;5.79;52.58
11648;BME280;5880;52.342;9.662;2023-01-29T03:30:16;102145.78;;;5.79;52.30
11648;BME280;5880;52.342;9.662;2023-01-29T03:33:07;102149.34;;;5.79;52.59
11648;BME280;5880;52.342;9.662;2023-01-29T03:35:40;102138.34;;;5.81;52.66
11648;BME280;5880;52.342;9.662;2023-01-29T03:38:10;102144.59;;;5.81;52.65
11648;BME280;5880;52.342;9.662;2023-01-29T03:40:50;102138.84;;;5.84;52.64
11648;BME280;5880;52.342;9.662;2023-01-29T03:43:30;102146.97;;;5.84;52.87
11648;BME280;5880;52.342;9.662;2023-01-29T03:46:13;102131.53;;;5.85;52.24
11648;BME280;5880;52.342;9.662;2023-01-29T03:48:56;102130.69;;;5.84;52.64
11648;BME280;5880;52.342;9.662;2023-01-29T03:51:42;102135.13;;;5.85;52.38
11648;BME280;5880;52.342;9.662;2023-01-29T03:54:35;102129.00;;;5.83;52.37
11648;BME280;5880;52.342;9.662;2023-01-29T03:58:11;102124.44;;;5.84;52.23
11648;BME280;5880;52.342;9.662;2023-01-29T04:00:26;102116.28;;;5.84;52.00
11648;BME280;5880;52.342;9.662;2023-01-29T04:03:19;102110.16;;;5.82;52.23
11648;BME280;5880;52.342;9.662;2023-01-29T04:06:17;102108.00;;;5.85;52.58
11648;BME280;5880;52.342;9.662;2023-01-29T04:08:57;102108.00;;;5.85;52.24
11648;BME280;5880;52.342;9.662;2023-01-29T04:11:26;102093.41;;;5.86;52.35
11648;BME280;5880;52.342;9.662;2023-01-29T04:13:53;102097.63;;;5.89;52.33
11648;BME280;5880;52.342;9.662;2023-01-29T04:16:27;102091.22;;;5.90;51.99
11648;BME280;5880;52.342;9.662;2023-01-29T04:18:56;102085.41;;;5.85;52.75
11648;BME280;5880;52.342;9.662;2023-01-29T04:21:24;102082.03;;;5.91;52.43
11648;BME280;5880;52.342;9.662;2023-01-29T04:23:50;102077.44;;;5.91;52.23
11648;BME280;5880;52.342;9.662;2023-01-29T04:29:36;102064.06;;;5.90;52.23
11648;BME280;5880;52.342;9.662;2023-01-29T04:32:31;102047.41;;;5.85;52.41
11648;BME280;5880;52.342;9.662;2023-01-29T04:35:28;102049.81;;;5.88;52.32
11648;BME280;5880;52.342;9.662;2023-01-29T04:38:13;102050.50;;;5.90;52.65
11648;BME280;5880;52.342;9.662;2023-01-29T04:44:32;102035.91;;;5.91;52.18
11648;BME280;5880;52.342;9.662;2023-01-29T04:47:28;102036.75;;;5.91;52.30
11648;BME280;5880;52.342;9.662;2023-01-29T04:50:22;102041.19;;;5.92;52.39
11648;BME280;5880;52.342;9.662;2023-01-29T04:53:02;102043.56;;;5.96;52.47
11648;BME280;5880;52.342;9.662;2023-01-29T04:55:39;102046.13;;;5.97;52.18
11648;BME280;5880;52.342;9.662;2023-01-29T04:58:15;102039.84;;;5.97;52.64
11648;BME280;5880;52.342;9.662;2023-01-29T05:00:48;102034.72;;;5.93;52.36
11648;BME280;5880;52.342;9.662;2023-01-29T05:03:19;102042.38;;;5.98;52.22
11648;BME280;5880;52.342;9.662;2023-01-29T05:05:47;102035.09;;;5.99;51.93
11648;BME280;5880;52.342;9.662;2023-01-29T05:08:22;102033.91;;;6.01;52.18
11648;BME280;5880;52.342;9.662;2023-01-29T05:10:51;102033.91;;;6.01;52.19
11648;BME280;5880;52.342;9.662;2023-01-29T05:13:20;102033.75;;;6.03;52.22
11648;BME280;5880;52.342;9.662;2023-01-29T05:16:00;102033.75;;;6.03;52.18
11648;BME280;5880;52.342;9.662;2023-01-29T05:18:28;102039.69;;;5.98;51.89
11648;BME280;5880;52.342;9.662;2023-01-29T05:20:58;102046.63;;;6.01;52.04
11648;BME280;5880;52.342;9.662;2023-01-29T05:23:26;102034.25;;;5.98;52.04
11648;BME280;5880;52.342;9.662;2023-01-29T05:25:51;102034.41;;;5.97;51.94
11648;BME280;5880;52.342;9.662;2023-01-29T05:28:17;102028.97;;;5.97;52.02
11648;BME280;5880;52.342;9.662;2023-01-29T05:30:46;102039.00;;;5.96;51.96
11648;BME280;5880;52.342;9.662;2023-01-29T05:33:18;102043.56;;;5.96;52.35
11648;BME280;5880;52.342;9.662;2023-01-29T05:35:45;102035.59;;;5.94;52.29
11648;BME280;5880;52.342;9.662;2023-01-29T05:38:11;102049.00;;;5.96;51.96
11648;BME280;5880;52.342;9.662;2023-01-29T05:40:37;102051.72;;;5.96;52.22
11648;BME280;5880;52.342;9.662;2023-01-29T05:43:04;102056.13;;;5.97;52.05
11648;BME280;5880;52.342;9.662;2023-01-29T05:45:32;102035.91;;;5.91;52.17
11648;BME280;5880;52.342;9.662;2023-01-29T05:47:59;102061.38;;;5.98;51.81
11648;BME280;5880;52.342;9.662;2023-01-29T05:50:26;102043.41;;;5.97;52.06
11648;BME280;5880;52.342;9.662;2023-01-29T05:52:59;102051.38;;;5.99;51.73
11648;BME280;5880;52.342;9.662;2023-01-29T05:55:26;102037.13;;;5.97;51.92
11648;BME280;5880;52.342;9.662;2023-01-29T05:57:54;102046.13;;;5.97;51.97
11648;BME280;5880;52.342;9.662;2023-01-29T06:00:20;102061.38;;;5.98;52.08
11648;BME280;5880;52.342;9.662;2023-01-29T06:02:46;102063.94;;;6.00;52.33
11648;BME280;5880;52.342;9.662;2023-01-29T06:05:12;102070.22;;;6.00;51.92
11648;BME280;5880;52.342;9.662;2023-01-29T06:07:37;102067.34;;;6.02;51.81
11648;BME280;5880;52.342;9.662;2023-01-29T06:10:05;102064.44;;;6.03;52.19
11648;BME280;5880;52.342;9.662;2023-01-29T06:12:30;102050.53;;;5.98;51.69
11648;BME280;5880;52.342;9.662;2023-01-29T06:14:56;102065.28;;;6.04;52.05
11648;BME280;5880;52.342;9.662;2023-01-29T06:17:22;102069.72;;;6.05;51.96
11648;BME280;5880;52.342;9.662;2023-01-29T06:19:47;102064.13;;;6.06;52.19
11648;BME280;5880;52.342;9.662;2023-01-29T06:22:13;102058.69;;;6.06;52.31
11648;BME280;5880;52.342;9.662;2023-01-29T06:24:39;102041.38;;;6.07;51.88
11648;BME280;5880;52.342;9.662;2023-01-29T06:27:04;102045.97;;;6.07;52.22
11648;BME280;5880;52.342;9.662;2023-01-29T06:29:30;102058.50;;;6.08;52.06
11648;BME280;5880;52.342;9.662;2023-01-29T06:31:55;102062.25;;;6.07;52.03
11648;BME280;5880;52.342;9.662;2023-01-29T06:34:21;102059.53;;;6.07;52.14
11648;BME280;5880;52.342;9.662;2023-01-29T06:36:47;102055.81;;;6.08;51.92
11648;BME280;5880;52.342;9.662;2023-01-29T06:39:12;102062.06;;;6.08;52.33
11648;BME280;5880;52.342;9.662;2023-01-29T06:41:38;102066.50;;;6.09;51.73
11648;BME280;5880;52.342;9.662;2023-01-29T06:44:04;102068.38;;;6.09;51.78
11648;BME280;5880;52.342;9.662;2023-01-29T06:46:29;102056.50;;;6.10;52.10
11648;BME280;5880;52.342;9.662;2023-01-29T06:48:58;102050.03;;;6.11;51.98
11648;BME280;5880;52.342;9.662;2023-01-29T06:51:25;102063.44;;;6.12;52.27
11648;BME280;5880;52.342;9.662;2023-01-29T06:53:51;102061.75;;;6.11;52.07
11648;BME280;5880;52.342;9.662;2023-01-29T06:56:18;102057.16;;;6.12;51.98
11648;BME280;5880;52.342;9.662;2023-01-29T06:58:47;102055.44;;;6.11;52.21
11648;BME280;5880;52.342;9.662;2023-01-29T07:01:13;102073.47;;;6.12;51.58
11648;BME280;5880;52.342;9.662;2023-01-29T07:03:39;102088.91;;;6.11;52.16
11648;BME280;5880;52.342;9.662;2023-01-29T07:06:07;102092.47;;;6.12;52.02
11648;BME280;5880;52.342;9.662;2023-01-29T07:08:39;102090.59;;;6.12;52.10
11648;BME280;5880;52.342;9.662;2023-01-29T07:11:08;102101.59;;;6.11;52.31
11648;BME280;5880;52.342;9.662;2023-01-29T07:13:33;102102.63;;;6.10;52.30
11648;BME280;5880;52.342;9.662;2023-01-29T07:16:04;102102.63;;;6.10;52.34
11648;BME280;5880;52.342;9.662;2023-01-29T07:18:30;102098.25;;;6.09;52.15
11648;BME280;5880;52.342;9.662;2023-01-29T07:20:57;102094.50;;;6.10;52.41
11648;BME280;5880;52.342;9.662;2023-01-29T07:23:23;102087.88;;;6.04;52.31
11648;BME280;5880;52.342;9.662;2023-01-29T07:25:49;102084.97;;;6.06;52.04
11648;BME280;5880;52.342;9.662;2023-01-29T07:28:17;102092.81;;;6.09;52.02
11648;BME280;5880;52.342;9.662;2023-01-29T07:30:43;102076.69;;;6.07;52.21
11648;BME280;5880;52.342;9.662;2023-01-29T07:33:09;102071.41;;;6.06;52.16
11648;BME280;5880;52.342;9.662;2023-01-29T07:35:38;102060.38;;;6.07;52.08
11648;BME280;5880;52.342;9.662;2023-01-29T07:38:04;102050.88;;;6.03;52.15
11648;BME280;5880;52.342;9.662;2023-01-29T07:40:29;102040.19;;;6.02;52.16
11648;BME280;5880;52.342;9.662;2023-01-29T07:43:00;102045.25;;;5.97;52.06
11648;BME280;5880;52.342;9.662;2023-01-29T07:45:28;102053.41;;;5.97;52.56
11648;BME280;5880;52.342;9.662;2023-01-29T07:47:55;102048.16;;;5.95;52.45
11648;BME280;5880;52.342;9.662;2023-01-29T07:50:25;102047.28;;;5.95;52.57
11648;BME280;5880;52.342;9.662;2023-01-29T07:52:53;102053.59;;;5.95;52.59
11648;BME280;5880;52.342;9.662;2023-01-29T07:55:19;102048.16;;;5.95;52.47
11648;BME280;5880;52.342;9.662;2023-01-29T07:57:45;102025.19;;;5.89;52.34
11648;BME280;5880;52.342;9.662;2023-01-29T08:00:12;101994.50;;;5.89;52.20
11648;BME280;5880;52.342;9.662;2023-01-29T08:02:40;101998.44;;;5.95;52.61
11648;BME280;5880;52.342;9.662;2023-01-29T08:05:06;101997.75;;;5.92;52.67
11648;BME280;5880;52.342;9.662;2023-01-29T08:07:31;102001.31;;;5.93;52.54
11648;BME280;5880;52.342;9.662;2023-01-29T08:09:57;102004.69;;;5.87;52.51
11648;BME280;5880;52.342;9.662;2023-01-29T08:12:23;102024.88;;;5.92;52.73
11648;BME280;5880;52.342;9.662;2023-01-29T08:14:48;102022.03;;;5.94;52.56
11648;BME280;5880;52.342;9.662;2023-01-29T08:17:14;102026.44;;;5.95;52.64
11648;BME280;5880;52.342;9.662;2023-01-29T08:19:40;102016.44;;;5.96;52.96
11648;BME280;5880;52.342;9.662;2023-01-29T08:22:06;102011.00;;;5.96;52.84
11648;BME280;5880;52.342;9.662;2023-01-29T08:24:32;102012.53;;;5.98;52.93
11648;BME280;5880;52.342;9.662;2023-01-29T08:26:58;102017.28;;;5.96;52.74
11648;BME280;5880;52.342;9.662;2023-01-29T08:29:23;102026.44;;;5.95;52.87
11648;BME280;5880;52.342;9.662;2023-01-29T08:31:49;102011.84;;;5.96;52.93
11648;BME280;5880;52.342;9.662;2023-01-29T08:34:15;102013.00;;;5.93;52.65
11648;BME280;5880;52.342;9.662;2023-01-29T08:36:41;102029.84;;;5.97;52.65
11648;BME280;5880;52.342;9.662;2023-01-29T08:39:06;102023.53;;;5.97;52.93
11648;BME280;5880;52.342;9.662;2023-01-29T08:41:32;102030.50;;;5.99;52.94
11648;BME280;5880;52.342;9.662;2023-01-29T08:43:58;102024.75;;;6.02;52.62
11648;BME280;5880;52.342;9.662;2023-01-29T08:46:25;102018.28;;;6.03;52.69
11648;BME280;5880;52.342;9.662;2023-01-29T08:48:51;102011.88;;;6.04;52.86
11648;BME280;5880;52.342;9.662;2023-01-29T08:51:17;102008.97;;;6.06;52.57
11648;BME280;5880;52.342;9.662;2023-01-29T08:53:43;102008.66;;;6.09;52.73
11648;BME280;5880;52.342;9.662;2023-01-29T08:56:08;102006.78;;;6.09;53.17
11648;BME280;5880;52.342;9.662;2023-01-29T08:58:34;102003.88;;;6.11;53.11
11648;BME280;5880;52.342;9.662;2023-01-29T09:01:09;102000.00;;;6.13;53.25
11648;BME280;5880;52.342;9.662;2023-01-29T09:03:35;102002.53;;;6.15;52.69
11648;BME280;5880;52.342;9.662;2023-01-29T09:06:02;102006.06;;;6.16;53.25
11648;BME280;5880;52.342;9.662;2023-01-29T09:08:28;102001.34;;;6.18;53.41
11648;BME280;5880;52.342;9.662;2023-01-29T09:10:53;101998.13;;;6.14;52.83
11648;BME280;5880;52.342;9.662;2023-01-29T09:13:19;102009.31;;;6.19;53.13
11648;BME280;5880;52.342;9.662;2023-01-29T09:15:44;102006.44;;;6.21;53.58
11648;BME280;5880;52.342;9.662;2023-01-29T09:18:10;101992.69;;;6.22;53.15
11648;BME280;5880;52.342;9.662;2023-01-29T09:20:36;101988.13;;;6.23;53.63
11648;BME280;5880;52.342;9.662;2023-01-29T09:23:07;101984.22;;;6.25;53.44
11648;BME280;5880;52.342;9.662;2023-01-29T09:25:35;101974.19;;;6.26;53.39
11648;BME280;5880;52.342;9.662;2023-01-29T09:28:01;101969.44;;;6.28;53.55
11648;BME280;5880;52.342;9.662;2023-01-29T09:30:27;101964.69;;;6.30;53.50
11648;BME280;5880;52.342;9.662;2023-01-29T09:32:53;101966.53;;;6.29;53.06
11648;BME280;5880;52.342;9.662;2023-01-29T09:35:20;101955.16;;;6.34;53.35
11648;BME280;5880;52.342;9.662;2023-01-29T09:37:47;101958.56;;;6.36;52.92
11648;BME280;5880;52.342;9.662;2023-01-29T09:40:26;101959.22;;;6.38;53.49
11648;BME280;5880;52.342;9.662;2023-01-29T09:43:03;101960.75;;;6.41;53.33
11648;BME280;5880;52.342;9.662;2023-01-29T09:45:31;101959.41;;;6.45;53.45
11648;BME280;5880;52.342;9.662;2023-01-29T09:48:03;101963.63;;;6.47;53.57
11648;BME280;5880;52.342;9.662;2023-01-29T09:50:47;101952.25;;;6.52;53.40
11648;BME280;5880;52.342;9.662;2023-01-29T09:53:38;101955.66;;;6.54;53.49
11648;BME280;5880;52.342;9.662;2023-01-29T09:56:17;101956.13;;;6.58;53.55
11648;BME280;5880;52.342;9.662;2023-01-29T09:58:43;101956.81;;;6.60;53.65
11648;BME280;5880;52.342;9.662;2023-01-29T10:02:08;101950.00;;;6.64;53.65
11648;BME280;5880;52.342;9.662;2023-01-29T10:08:28;101940.50;;;6.68;53.45
11648;BME280;5880;52.342;9.662;2023-01-29T10:13:52;101941.84;;;6.72;53.43
11648;BME280;5880;52.342;9.662;2023-01-29T10:22:59;101941.50;;;6.75;53.51
11648;BME280;5880;52.342;9.662;2023-01-29T10:25:27;101943.16;;;6.76;53.25
11648;BME280;5880;52.342;9.662;2023-01-29T10:27:57;101938.41;;;6.78;53.25
11648;BME280;5880;52.342;9.662;2023-01-29T10:30:40;101940.78;;;6.81;53.55
11648;BME280;5880;52.342;9.662;2023-01-29T10:33:22;101943.31;;;6.83;53.65
11648;BME280;5880;52.342;9.662;2023-01-29T10:35:57;101948.41;;;6.86;53.57
11648;BME280;5880;52.342;9.662;2023-01-29T10:38:39;101953.50;;;6.89;53.44
11648;BME280;5880;52.342;9.662;2023-01-29T10:47:09;101935.16;;;6.91;53.15
11648;BME280;5880;52.342;9.662;2023-01-29T10:52:31;101920.16;;;6.95;53.83
11648;BME280;5880;52.342;9.662;2023-01-29T11:00:41;101903.31;;;7.00;53.51
11648;BME280;5880;52.342;9.662;2023-01-29T11:05:59;101894.84;;;7.03;53.14
11648;BME280;5880;52.342;9.662;2023-01-29T11:08:42;101888.19;;;7.05;52.92
11648;BME280;5880;52.342;9.662;2023-01-29T11:11:15;101884.63;;;7.05;53.41
11648;BME280;5880;52.342;9.662;2023-01-29T11:14:02;101879.84;;;7.07;53.33
11648;BME280;5880;52.342;9.662;2023-01-29T11:16:44;101875.28;;;7.07;53.37
11648;BME280;5880;52.342;9.662;2023-01-29T11:19:12;101872.72;;;7.06;53.30
11648;BME280;5880;52.342;9.662;2023-01-29T11:22:00;101875.06;;;7.09;52.85
11648;BME280;5880;52.342;9.662;2023-01-29T11:24:26;101866.75;;;7.10;53.63
11648;BME280;5880;52.342;9.662;2023-01-29T11:26:56;101862.31;;;7.09;52.88
11648;BME280;5880;52.342;9.662;2023-01-29T11:29:44;101859.56;;;7.17;53.56
11648;BME280;5880;52.342;9.662;2023-01-29T11:32:33;101861.25;;;7.18;53.49
11648;BME280;5880;52.342;9.662;2023-01-29T11:37:40;101855.47;;;7.22;53.50
11648;BME280;5880;52.342;9.662;2023-01-29T11:40:40;101848.81;;;7.24;53.40
11648;BME280;5880;52.342;9.662;2023-01-29T11:45:55;101847.78;;;7.25;53.50
11648;BME280;5880;52.342;9.662;2023-01-29T11:48:43;101831.66;;;7.24;53.21
11648;BME280;5880;52.342;9.662;2023-01-29T11:51:20;101836.34;;;7.30;52.99
11648;BME280;5880;52.342;9.662;2023-01-29T11:53:56;101827.19;;;7.31;53.18
11648;BME280;5880;52.342;9.662;2023-01-29T11:56:41;101825.97;;;7.33;52.77
11648;BME280;5880;52.342;9.662;2023-01-29T11:59:42;101819.69;;;7.33;53.43
11648;BME280;5880;52.342;9.662;2023-01-29T12:02:32;101812.38;;;7.33;53.28
11648;BME280;5880;52.342;9.662;2023-01-29T12:05:20;101813.22;;;7.34;53.21
11648;BME280;5880;52.342;9.662;2023-01-29T12:07:50;101811.31;;;7.34;53.68
11648;BME280;5880;52.342;9.662;2023-01-29T12:10:38;101808.25;;;7.37;53.37
11648;BME280;5880;52.342;9.662;2023-01-29T12:15:41;101792.59;;;7.39;53.53
11648;BME280;5880;52.342;9.662;2023-01-29T12:18:27;101795.13;;;7.41;52.83
11648;BME280;5880;52.342;9.662;2023-01-29T12:21:03;101800.56;;;7.41;52.67
11648;BME280;5880;52.342;9.662;2023-01-29T12:23:40;101792.41;;;7.41;52.67
11648;BME280;5880;52.342;9.662;2023-01-29T12:26:38;101777.97;;;7.40;53.04
11648;BME280;5880;52.342;9.662;2023-01-29T12:32:02;101781.53;;;7.41;53.25
11648;BME280;5880;52.342;9.662;2023-01-29T12:37:44;101774.59;;;7.38;52.73
11648;BME280;5880;52.342;9.662;2023-01-29T12:40:16;101775.41;;;7.39;53.11
11648;BME280;5880;52.342;9.662;2023-01-29T12:42:47;101767.25;;;7.39;52.96
11648;BME280;5880;52.342;9.662;2023-01-29T12:45:21;101776.47;;;7.38;52.54
11648;BME280;5880;52.342;9.662;2023-01-29T12:47:55;101767.63;;;7.36;53.16
11648;BME280;5880;52.342;9.662;2023-01-29T12:50:26;101773.25;;;7.34;52.73
11648;BME280;5880;52.342;9.662;2023-01-29T12:53:22;101765.94;;;7.35;52.83
11648;BME280;5880;52.342;9.662;2023-01-29T12:56:15;101761.69;;;7.32;52.95
11648;BME280;5880;52.342;9.662;2023-01-29T12:58:48;101757.31;;;7.31;52.57
11648;BME280;5880;52.342;9.662;2023-01-29T13:01:35;101752.03;;;7.30;52.65
11648;BME280;5880;52.342;9.662;2023-01-29T13:04:14;101753.25;;;7.27;52.84
11648;BME280;5880;52.342;9.662;2023-01-29T13:06:52;101746.31;;;7.25;52.69
11648;BME280;5880;52.342;9.662;2023-01-29T13:09:27;101737.31;;;7.24;52.94
11648;BME280;5880;52.342;9.662;2023-01-29T13:12:03;101727.28;;;7.25;52.62
11648;BME280;5880;52.342;9.662;2023-01-29T13:14:50;101728.09;;;7.25;52.49
11648;BME280;5880;52.342;9.662;2023-01-29T13:17:32;101736.09;;;7.27;52.58
11648;BME280;5880;52.342;9.662;2023-01-29T13:20:12;101728.78;;;7.27;52.64
11648;BME280;5880;52.342;9.662;2023-01-29T13:22:43;101727.94;;;7.27;52.70
11648;BME280;5880;52.342;9.662;2023-01-29T13:25:15;101719.59;;;7.28;52.71
11648;BME280;5880;52.342;9.662;2023-01-29T13:27:43;101717.50;;;7.30;53.15
11648;BME280;5880;52.342;9.662;2023-01-29T13:30:29;101717.34;;;7.32;52.66
11648;BME280;5880;52.342;9.662;2023-01-29T13:32:59;101707.31;;;7.32;53.00
11648;BME280;5880;52.342;9.662;2023-01-29T13:35:43;101708.19;;;7.33;52.72
11648;BME280;5880;52.342;9.662;2023-01-29T13:38:27;101700.66;;;7.35;52.95
11648;BME280;5880;52.342;9.662;2023-01-29T13:41:03;101709.69;;;7.35;52.63
11648;BME280;5880;52.342;9.662;2023-01-29T13:43:37;101708.47;;;7.38;52.94
11648;BME280;5880;52.342;9.662;2023-01-29T13:46:17;101702.81;;;7.39;52.79
11648;BME280;5880;52.342;9.662;2023-01-29T13:48:49;101688.59;;;7.37;52.80
11648;BME280;5880;52.342;9.662;2023-01-29T13:51:20;101682.47;;;7.35;52.66
11648;BME280;5880;52.342;9.662;2023-01-29T13:54:00;101681.91;;;7.40;52.33
11648;BME280;5880;52.342;9.662;2023-01-29T13:56:59;101670.09;;;7.33;52.82
11648;BME280;5880;52.342;9.662;2023-01-29T13:59:52;101662.41;;;7.36;52.58
11648;BME280;5880;52.342;9.662;2023-01-29T14:02:26;101661.38;;;7.37;52.86
11648;BME280;5880;52.342;9.662;2023-01-29T14:05:41;101670.72;;;7.35;52.83
11648;BME280;5880;52.342;9.662;2023-01-29T14:10:41;101653.41;;;7.36;52.85
11648;BME280;5880;52.342;9.662;2023-01-29T14:15:44;101654.22;;;7.36;52.67
11648;BME280;5880;52.342;9.662;2023-01-29T14:21:16;101655.06;;;7.37;52.88
11648;BME280;5880;52.342;9.662;2023-01-29T14:23:49;101653.56;;;7.34;52.98
11648;BME280;5880;52.342;9.662;2023-01-29T14:29:26;101633.03;;;7.32;52.44
11648;BME280;5880;52.342;9.662;2023-01-29T14:34:58;101636.25;;;7.35;52.89
11648;BME280;5880;52.342;9.662;2023-01-29T14:37:39;101640.19;;;7.33;53.20
11648;BME280;5880;52.342;9.662;2023-01-29T14:40:19;101634.91;;;7.31;52.94
11648;BME280;5880;52.342;9.662;2023-01-29T14:43:04;101620.38;;;7.24;52.72
11648;BME280;5880;52.342;9.662;2023-01-29T14:45:36;101635.28;;;7.28;53.00
11648;BME280;5880;52.342;9.662;2023-01-29T14:53:27;101629.84;;;7.28;53.02
11648;BME280;5880;52.342;9.662;2023-01-29T14:56:17;101622.72;;;7.27;52.60
11648;BME280;5880;52.342;9.662;2023-01-29T14:58:49;101622.25;;;7.24;53.03
11648;BME280;5880;52.342;9.662;2023-01-29T15:01:31;101620.53;;;7.23;52.87
11648;BME280;5880;52.342;9.662;2023-01-29T15:04:03;101622.44;;;7.22;52.58
11648;BME280;5880;52.342;9.662;2023-01-29T15:06:46;101626.75;;;7.16;52.77